»·PEaware :: N2494V KSBP-KMRY

N2494V :: KSBP-KMRY

FLIGHT INFORMATION

Flight Status: Arrived
Operator: Privately registered:
United States
More flights under this callsign
Pilot: Sally S. (18014)
Aircraft: Unknown
(DA62)
More flights by this aircraft type
Origin: KSBP San Luis Co Regl
United States
Destination: KMRY Monterey Peninsula
United States
More flights between these airports :: More routes between these airports
Route: +V113 PRB V25 WIGGL
File this flight plan on PilotEdge
Remarks:
Altitude:
(Current/Filed)
6,000ft
Speed:
(Current/Filed)
163kts
Departed: 16-Apr-18 08:57 AM
Arrived: 16-Apr-18 09:43 AM
Distance/Time
Traveled:
100nm/0:45
Distance/Time
To Go:
Arrived

Flight Plot

Page will automatically refresh every two minutes.

Flight plan parsing failed; only flown route is shown


Map Options




Map Legend


Flown Route
Filed Route
Departure Airport
Arrival Airport
Navaid (VOR, NDB)
Fix

Horizontal Profiles

Position Reports

Time Latitude Longitude Heading Altitude Ground
Speed
16-Apr-18 08:41 35.237405 -120.636669 304 215ft 0kts
16-Apr-18 08:42 35.237405 -120.636669 304 215ft 0kts
16-Apr-18 08:43 35.237405 -120.636669 304 215ft 0kts
16-Apr-18 08:44 35.237405 -120.636669 304 215ft 0kts
16-Apr-18 08:45 35.237405 -120.636669 304 215ft 0kts
16-Apr-18 08:46 35.237405 -120.636669 304 215ft 0kts
16-Apr-18 08:47 35.237405 -120.636669 304 215ft 0kts
16-Apr-18 08:48 35.237405 -120.636669 304 215ft 0kts
16-Apr-18 08:49 35.237405 -120.636669 304 215ft 0kts
16-Apr-18 08:50 35.237405 -120.636669 304 215ft 0kts
16-Apr-18 08:51 35.237405 -120.636669 304 215ft 0kts
16-Apr-18 08:52 35.237405 -120.636669 304 215ft 0kts
16-Apr-18 08:53 35.237425 -120.636705 302 215ft 2kts
16-Apr-18 08:54 35.234785 -120.634378 123 215ft 26kts
16-Apr-18 08:55 35.233258 -120.632310 209 215ft 0kts
16-Apr-18 08:56 35.239025 -120.643763 303 255ft 116kts
16-Apr-18 08:57 35.254784 -120.672436 302 1852ft 93kts
16-Apr-18 08:58 35.269543 -120.698819 302 3241ft 96kts
16-Apr-18 08:59 35.285392 -120.725539 302 4617ft 99kts
16-Apr-18 09:00 35.309844 -120.733556 15 5897ft 112kts
16-Apr-18 09:01 35.347393 -120.721640 13 6008ft 159kts
16-Apr-18 09:02 35.389144 -120.709391 13 6843ft 120kts
16-Apr-18 09:03 35.419672 -120.700519 14 7829ft 113kts
16-Apr-18 09:04 35.449111 -120.691606 4 8955ft 92kts
16-Apr-18 09:05 35.477659 -120.683642 4 9615ft 115kts
16-Apr-18 09:06 35.512127 -120.673840 5 9985ft 148kts
16-Apr-18 09:07 35.555368 -120.661275 6 9984ft 167kts
16-Apr-18 09:08 35.601678 -120.647787 6 9983ft 174kts
16-Apr-18 09:09 35.648934 -120.634023 6 9983ft 175kts
16-Apr-18 09:10 35.690894 -120.646290 318 9983ft 160kts
16-Apr-18 09:11 35.726305 -120.679588 317 9982ft 160kts
16-Apr-18 09:12 35.761346 -120.713421 316 9982ft 160kts
16-Apr-18 09:13 35.796197 -120.747259 316 9982ft 160kts
16-Apr-18 09:14 35.831123 -120.781235 316 9982ft 160kts
16-Apr-18 09:15 35.865915 -120.815119 316 9982ft 160kts
16-Apr-18 09:16 35.900730 -120.849070 316 9982ft 160kts
16-Apr-18 09:17 35.935530 -120.883040 316 9982ft 160kts
16-Apr-18 09:18 35.970292 -120.916924 317 9981ft 160kts
16-Apr-18 09:19 36.005731 -120.951609 317 9720ft 170kts
16-Apr-18 09:20 36.043802 -120.988858 318 9126ft 176kts
16-Apr-18 09:21 36.082201 -121.026519 319 8521ft 175kts
16-Apr-18 09:22 36.118688 -121.062362 320 7943ft 173kts
16-Apr-18 09:23 36.156026 -121.099103 322 7353ft 172kts
16-Apr-18 09:24 36.196380 -121.138735 319 6974ft 187kts
16-Apr-18 09:25 36.236327 -121.178132 318 6972ft 182kts
16-Apr-18 09:26 36.275742 -121.217078 317 6923ft 183kts
16-Apr-18 09:27 36.316208 -121.256330 323 6419ft 186kts
16-Apr-18 09:28 36.356607 -121.295247 319 6071ft 178kts
16-Apr-18 09:29 36.391255 -121.334580 298 6071ft 161kts
16-Apr-18 09:30 36.413870 -121.381494 295 6079ft 156kts
16-Apr-18 09:31 36.435925 -121.428033 295 6090ft 156kts
16-Apr-18 09:32 36.457902 -121.474472 295 6090ft 156kts
16-Apr-18 09:33 36.478840 -121.524154 288 5604ft 177kts
16-Apr-18 09:34 36.496486 -121.576706 289 4888ft 159kts
16-Apr-18 09:35 36.512145 -121.623195 289 4421ft 136kts
16-Apr-18 09:36 36.526674 -121.666483 289 3735ft 134kts
16-Apr-18 09:37 36.540957 -121.708617 291 2939ft 126kts
16-Apr-18 09:38 36.554351 -121.748041 292 2045ft 118kts
16-Apr-18 09:39 36.566751 -121.784537 291 1225ft 112kts
16-Apr-18 09:40 36.578760 -121.819771 291 527ft 109kts
16-Apr-18 09:41 36.588173 -121.847799 292 259ft 53kts
16-Apr-18 09:42 36.588199 -121.851832 334 259ft 5kts

Navigation Log

Ident Type
Flight plan parsing failed, navigation log unavailable